Time;durP1;ratioP1;P1;durP2;ratioP2;P2;SDS_P1;SDS_P2;PMS_P1;PMS_P2;Temp;Humidity;BMP_temperature;BMP_pressure;BME280_temperature;BME280_humidity;BME280_pressure;Samples;Min_cycle;Max_cycle;Signal;HPM_P1;HPM_P2
2022/12/25 00:00:39;;;;;;;84.03;20.63;;;5.40;99.90;;;;;;5041907;28;20127;-69
2022/12/25 00:03:05;;;;;;;97.63;21.67;;;5.50;99.90;;;;;;5057579;28;20048;-68
2022/12/25 00:05:31;;;;;;;101.43;23.10;;;5.50;99.90;;;;;;5043513;28;20151;-69
2022/12/25 00:07:57;;;;;;;88.20;22.30;;;5.40;99.90;;;;;;5040961;28;20032;-68
2022/12/25 00:10:22;;;;;;;90.72;22.33;;;5.50;99.90;;;;;;5057208;28;20079;-68
2022/12/25 00:12:48;;;;;;;104.05;22.65;;;5.40;99.90;;;;;;5043492;28;20036;-68
2022/12/25 00:15:14;;;;;;;87.25;22.42;;;5.40;99.90;;;;;;5056195;28;20041;-68
2022/12/25 00:17:40;;;;;;;98.38;22.60;;;5.50;99.90;;;;;;5064483;28;20515;-68
2022/12/25 00:20:06;;;;;;;108.00;24.15;;;5.50;99.90;;;;;;5076596;28;20048;-69
2022/12/25 00:22:32;;;;;;;101.68;23.55;;;5.50;99.90;;;;;;5079015;28;20129;-69
2022/12/25 00:24:57;;;;;;;111.05;22.27;;;5.50;99.90;;;;;;5063266;28;20090;-69
2022/12/25 00:27:23;;;;;;;86.00;20.92;;;5.40;99.90;;;;;;5059593;28;20127;-68
2022/12/25 00:29:49;;;;;;;94.25;22.52;;;5.50;99.90;;;;;;5047770;28;20043;-68
2022/12/25 00:32:14;;;;;;;94.82;23.60;;;5.50;99.90;;;;;;5047386;28;20079;-68
2022/12/25 00:34:40;;;;;;;88.20;21.75;;;5.50;99.90;;;;;;5062474;28;20043;-68
2022/12/25 00:37:05;;;;;;;118.90;25.25;;;5.60;99.90;;;;;;5063326;28;20049;-68
2022/12/25 00:39:31;;;;;;;108.70;24.90;;;5.60;99.90;;;;;;5065390;28;20052;-69
2022/12/25 00:44:41;;;;;;;88.53;22.70;;;5.70;99.90;;;;;;5078148;28;20048;-68
2022/12/25 00:47:06;;;;;;;94.75;23.88;;;5.70;99.90;;;;;;5064069;28;20040;-68
2022/12/25 00:49:32;;;;;;;93.25;23.92;;;5.80;99.90;;;;;;5077401;28;20090;-69
2022/12/25 00:51:57;;;;;;;105.90;24.60;;;5.80;99.90;;;;;;5063292;28;20060;-69
2022/12/25 00:54:23;;;;;;;85.97;22.70;;;5.90;99.90;;;;;;5046778;28;20068;-68
2022/12/25 00:56:49;;;;;;;107.00;25.63;;;6.00;99.90;;;;;;5063611;28;20113;-69
2022/12/25 00:59:14;;;;;;;111.07;25.05;;;6.00;99.90;;;;;;5045945;28;20040;-68
2022/12/25 01:01:40;;;;;;;85.22;22.25;;;6.10;99.90;;;;;;5063931;28;20036;-68
2022/12/25 01:04:07;;;;;;;125.75;26.90;;;6.20;99.90;;;;;;5064328;28;20152;-69
2022/12/25 01:06:33;;;;;;;131.63;27.67;;;6.20;99.90;;;;;;5048598;28;20075;-69
2022/12/25 01:11:43;;;;;;;134.25;29.95;;;6.40;99.90;;;;;;5062823;28;20064;-68
2022/12/25 01:14:10;;;;;;;154.52;29.27;;;6.40;99.90;;;;;;5069512;28;20071;-68
2022/12/25 01:16:36;;;;;;;164.45;31.10;;;6.40;99.90;;;;;;5048683;28;20040;-69
2022/12/25 01:19:01;;;;;;;153.73;28.95;;;6.40;99.90;;;;;;5049581;28;20443;-69
2022/12/25 01:21:27;;;;;;;185.38;30.67;;;6.40;99.90;;;;;;5044769;28;20040;-68
2022/12/25 01:23:53;;;;;;;170.50;28.38;;;6.40;99.90;;;;;;5062316;28;20202;-68
2022/12/25 01:26:21;;;;;;;194.02;29.95;;;6.50;99.90;;;;;;5041220;28;20044;-69
2022/12/25 01:28:48;;;;;;;218.75;31.90;;;6.50;99.90;;;;;;5043234;28;20109;-68
2022/12/25 01:31:16;;;;;;;275.67;32.67;;;6.40;99.90;;;;;;5047658;28;20048;-69
2022/12/25 01:33:42;;;;;;;157.82;27.00;;;6.50;99.90;;;;;;5082440;28;20040;-69
2022/12/25 01:36:15;;;;;;;192.00;30.58;;;6.50;99.90;;;;;;5048891;28;20050;-69
2022/12/25 01:38:42;;;;;;;230.60;33.15;;;6.40;99.90;;;;;;5065589;28;20439;-69
2022/12/25 01:41:08;;;;;;;219.65;32.25;;;6.50;99.90;;;;;;5046120;28;20066;-69
2022/12/25 01:43:33;;;;;;;253.70;34.80;;;6.50;99.90;;;;;;5049076;28;20500;-69
2022/12/25 01:45:59;;;;;;;171.85;28.80;;;6.50;99.90;;;;;;5048635;28;20032;-69
2022/12/25 01:48:31;;;;;;;176.13;30.08;;;6.50;99.90;;;;;;5063822;28;20033;-69
2022/12/25 01:51:16;;;;;;;202.27;31.05;;;6.50;99.90;;;;;;5078378;28;20040;-69
2022/12/25 01:53:41;;;;;;;224.90;33.10;;;6.50;99.90;;;;;;5078435;28;20047;-69
2022/12/25 01:56:08;;;;;;;183.50;29.42;;;6.60;99.90;;;;;;5042794;28;20497;-69
2022/12/25 01:58:34;;;;;;;155.10;29.27;;;6.60;99.90;;;;;;5036802;28;20043;-69
2022/12/25 02:01:00;;;;;;;135.70;28.98;;;6.60;99.90;;;;;;5056616;28;20175;-69
2022/12/25 02:03:26;;;;;;;111.38;24.65;;;6.60;99.90;;;;;;5042008;28;20141;-69
2022/12/25 02:05:51;;;;;;;134.50;31.35;;;6.70;99.90;;;;;;5040809;28;20135;-68
2022/12/25 02:08:20;;;;;;;111.35;29.08;;;6.70;99.90;;;;;;5055264;28;20071;-69
2022/12/25 02:10:45;;;;;;;105.72;26.92;;;6.70;99.90;;;;;;5060871;28;20051;-68
2022/12/25 02:13:15;;;;;;;111.88;26.52;;;6.70;99.90;;;;;;5052980;28;20036;-69
2022/12/25 02:15:43;;;;;;;118.93;27.38;;;6.80;99.90;;;;;;5037491;28;20090;-69
2022/12/25 02:18:20;;;;;;;120.35;27.33;;;6.80;99.90;;;;;;5054108;28;20048;-69
2022/12/25 02:21:21;;;;;;;105.30;26.48;;;6.80;99.90;;;;;;5055865;28;20062;-69
2022/12/25 02:24:01;;;;;;;110.85;26.98;;;6.80;99.90;;;;;;5014814;28;20508;-69
2022/12/25 02:26:35;;;;;;;108.53;26.73;;;6.90;99.90;;;;;;5062311;28;20041;-69
2022/12/25 02:29:21;;;;;;;101.32;26.15;;;6.90;99.90;;;;;;5058935;28;20072;-69
2022/12/25 02:32:03;;;;;;;103.32;25.73;;;6.90;99.90;;;;;;5077384;28;20519;-68
2022/12/25 02:34:31;;;;;;;86.60;24.63;;;7.00;99.90;;;;;;5047546;28;20413;-69
2022/12/25 02:37:11;;;;;;;96.82;27.00;;;7.00;99.90;;;;;;5062419;28;20037;-69
2022/12/25 02:39:57;;;;;;;88.78;25.77;;;7.00;99.90;;;;;;5059726;28;20742;-69
2022/12/25 03:08:22;;;;;;;76.80;24.92;;;7.40;99.90;;;;;;5032388;28;20488;-68
2022/12/25 03:13:43;;;;;;;79.47;27.13;;;7.40;99.90;;;;;;5068548;28;20052;-68
2022/12/25 03:18:56;;;;;;;65.07;23.60;;;7.40;99.90;;;;;;5054479;28;20044;-69
2022/12/25 03:26:56;;;;;;;75.65;26.77;;;7.60;99.90;;;;;;5058439;28;20056;-68
2022/12/25 03:32:25;;;;;;;82.60;26.13;;;7.60;99.90;;;;;;5062458;28;20688;-68
2022/12/25 04:36:37;;;;;;;85.38;23.58;;;7.90;99.90;;;;;;5062601;28;20045;-69
2022/12/25 04:39:02;;;;;;;106.05;28.88;;;8.00;99.90;;;;;;5061449;28;20102;-69
2022/12/25 04:41:28;;;;;;;102.68;28.27;;;8.00;99.90;;;;;;5062374;28;20057;-69
2022/12/25 04:43:54;;;;;;;90.20;27.13;;;8.00;99.90;;;;;;5047295;28;20052;-69
2022/12/25 04:46:19;;;;;;;106.75;30.30;;;8.00;99.90;;;;;;5064980;28;20094;-69
2022/12/25 04:48:45;;;;;;;96.90;27.33;;;8.00;99.90;;;;;;5065727;28;20044;-69
2022/12/25 04:51:13;;;;;;;87.78;27.98;;;8.00;99.90;;;;;;5064841;28;20388;-69
2022/12/25 04:53:38;;;;;;;105.50;27.58;;;8.10;99.90;;;;;;5063962;28;20041;-69
2022/12/25 04:56:04;;;;;;;93.05;27.63;;;8.10;99.90;;;;;;5065320;28;20055;-69
2022/12/25 04:58:31;;;;;;;99.20;29.98;;;8.10;99.90;;;;;;5079300;28;20048;-69
2022/12/25 05:01:01;;;;;;;80.60;26.08;;;8.10;99.90;;;;;;5064334;28;20036;-69
2022/12/25 05:03:27;;;;;;;100.45;28.13;;;8.10;99.90;;;;;;5063152;28;20408;-69
2022/12/25 05:05:53;;;;;;;71.70;23.08;;;8.10;99.90;;;;;;5056688;28;20113;-69
2022/12/25 05:08:19;;;;;;;95.03;26.75;;;8.10;99.90;;;;;;5043473;28;20036;-69
2022/12/25 05:10:44;;;;;;;93.28;27.50;;;8.10;99.90;;;;;;5058469;28;20499;-68
2022/12/25 05:13:10;;;;;;;94.38;28.30;;;8.10;99.90;;;;;;5041116;28;20054;-69
2022/12/25 05:15:39;;;;;;;84.22;25.70;;;8.20;99.90;;;;;;5042695;28;20074;-69
2022/12/25 05:18:04;;;;;;;88.50;27.90;;;8.20;99.90;;;;;;5054874;28;20052;-69
2022/12/25 05:20:30;;;;;;;79.35;25.27;;;8.20;99.90;;;;;;5056243;28;20561;-69
2022/12/25 05:22:55;;;;;;;88.15;25.52;;;8.20;99.90;;;;;;5048977;28;20109;-69
2022/12/25 05:25:21;;;;;;;89.68;26.88;;;8.30;99.90;;;;;;5058377;28;20063;-69
2022/12/25 05:27:46;;;;;;;88.65;25.90;;;8.20;99.90;;;;;;5074565;28;20036;-69
2022/12/25 05:30:12;;;;;;;88.10;26.92;;;8.30;99.90;;;;;;5057407;28;20041;-69
2022/12/25 05:32:38;;;;;;;78.70;24.38;;;8.30;99.90;;;;;;5055587;28;20063;-69
2022/12/25 05:35:04;;;;;;;91.60;25.77;;;8.30;99.90;;;;;;5057267;28;20417;-68
2022/12/25 05:37:30;;;;;;;76.90;25.48;;;8.30;99.90;;;;;;5056223;28;20131;-68
2022/12/25 05:39:55;;;;;;;89.53;25.40;;;8.30;99.90;;;;;;5053329;28;20048;-69
2022/12/25 05:42:21;;;;;;;86.72;25.35;;;8.30;99.90;;;;;;5053735;28;20041;-69
2022/12/25 05:44:47;;;;;;;100.47;26.67;;;8.30;99.90;;;;;;5057180;28;20048;-69
2022/12/25 05:47:12;;;;;;;90.78;27.25;;;8.30;99.90;;;;;;5055460;28;20584;-69
2022/12/25 05:49:38;;;;;;;106.63;27.63;;;8.30;99.90;;;;;;5073201;28;20093;-69
2022/12/25 05:52:03;;;;;;;94.60;27.02;;;8.30;99.90;;;;;;5072752;28;20048;-69
2022/12/25 05:54:29;;;;;;;100.32;28.20;;;8.30;99.90;;;;;;5053565;28;20044;-69
2022/12/25 05:56:54;;;;;;;92.35;26.85;;;8.30;99.90;;;;;;5061616;28;20407;-69
2022/12/25 05:59:20;;;;;;;86.35;25.55;;;8.40;99.90;;;;;;5055460;28;20107;-68
2022/12/25 06:01:45;;;;;;;95.32;28.83;;;8.40;99.90;;;;;;5042387;28;20033;-69
2022/12/25 06:04:11;;;;;;;90.30;27.15;;;8.40;99.90;;;;;;5059025;28;20404;-69
2022/12/25 06:06:36;;;;;;;87.95;28.33;;;8.40;99.90;;;;;;5073264;28;20130;-68
2022/12/25 06:09:02;;;;;;;92.05;28.83;;;8.40;99.90;;;;;;5050260;28;20079;-69
2022/12/25 06:11:28;;;;;;;103.45;26.08;;;8.40;99.90;;;;;;5056549;28;20388;-69
2022/12/25 06:13:53;;;;;;;96.03;28.50;;;8.40;99.90;;;;;;5039001;28;20119;-69
2022/12/25 06:16:19;;;;;;;84.47;27.35;;;8.40;99.90;;;;;;5058257;28;20040;-69
2022/12/25 06:18:47;;;;;;;97.13;28.55;;;8.40;99.90;;;;;;5054791;28;20043;-69
2022/12/25 06:21:14;;;;;;;107.00;28.77;;;8.40;99.90;;;;;;5074833;28;20054;-69
2022/12/25 06:23:40;;;;;;;108.40;28.63;;;8.40;99.90;;;;;;5071455;28;20044;-69
2022/12/25 06:26:09;;;;;;;96.57;27.48;;;8.40;99.90;;;;;;5057907;28;20047;-69
2022/12/25 06:28:35;;;;;;;109.43;30.58;;;8.40;99.90;;;;;;5070469;28;20127;-68
2022/12/25 06:31:12;;;;;;;101.03;28.30;;;8.50;99.90;;;;;;5057881;28;20369;-69
2022/12/25 06:33:38;;;;;;;108.63;28.60;;;8.40;99.90;;;;;;5044663;28;20430;-69
2022/12/25 06:36:12;;;;;;;122.72;30.45;;;8.40;99.90;;;;;;5047465;28;20044;-69
2022/12/25 06:38:38;;;;;;;;;;;8.40;99.90;;;;;;5063169;28;20093;-69
2022/12/25 06:41:07;;;;;;;86.60;24.58;;;8.50;99.90;;;;;;5062748;28;19936;-69
2022/12/25 06:43:32;;;;;;;101.80;30.17;;;8.50;99.90;;;;;;5062688;28;20800;-69
2022/12/25 06:46:06;;;;;;;105.88;29.23;;;8.50;99.90;;;;;;5061818;28;20036;-69
2022/12/25 06:48:33;;;;;;;91.70;26.83;;;8.50;99.90;;;;;;5064644;28;20131;-69
2022/12/25 06:50:59;;;;;;;107.63;27.48;;;8.50;99.90;;;;;;5076384;28;20169;-69
2022/12/25 06:53:25;;;;;;;102.60;28.05;;;8.50;99.90;;;;;;5061087;28;20043;-69
2022/12/25 06:55:51;;;;;;;113.15;28.70;;;8.50;99.90;;;;;;5061863;28;20040;-69
2022/12/25 06:58:16;;;;;;;93.90;27.92;;;8.50;99.90;;;;;;5063010;28;20040;-69
2022/12/25 07:00:42;;;;;;;91.50;27.70;;;8.50;99.90;;;;;;5063511;28;20055;-69
2022/12/25 07:03:08;;;;;;;91.43;26.25;;;8.50;99.90;;;;;;5069794;28;20499;-69
2022/12/25 07:05:33;;;;;;;85.97;27.92;;;8.50;99.90;;;;;;5056145;28;20048;-69
2022/12/25 07:07:59;;;;;;;93.65;28.33;;;8.50;99.90;;;;;;5036323;28;20041;-69
2022/12/25 07:10:25;;;;;;;99.63;28.02;;;8.50;99.90;;;;;;5039023;28;20064;-69
2022/12/25 07:12:50;;;;;;;83.80;27.60;;;8.50;99.90;;;;;;5053959;28;20129;-69
2022/12/25 07:15:16;;;;;;;81.50;24.02;;;8.50;99.90;;;;;;5068162;28;20051;-69
2022/12/25 07:17:42;;;;;;;86.70;27.83;;;8.50;99.90;;;;;;5054316;28;20095;-69
2022/12/25 07:20:08;;;;;;;80.95;24.65;;;8.60;99.90;;;;;;5069595;28;20044;-69
2022/12/25 07:22:34;;;;;;;93.95;27.42;;;8.60;99.90;;;;;;5055770;28;20059;-69
2022/12/25 07:24:59;;;;;;;82.30;25.60;;;8.60;99.90;;;;;;5058125;28;20561;-69
2022/12/25 07:27:25;;;;;;;76.28;26.40;;;8.60;99.90;;;;;;5036866;28;20032;-69
2022/12/25 07:29:51;;;;;;;79.15;24.38;;;8.60;99.90;;;;;;5039286;28;20493;-69
2022/12/25 07:32:16;;;;;;;89.63;27.30;;;8.60;99.90;;;;;;5056584;28;20094;-69
2022/12/25 07:34:42;;;;;;;80.45;25.52;;;8.50;99.90;;;;;;5040594;28;20662;-69
2022/12/25 07:37:07;;;;;;;83.68;26.50;;;8.50;99.90;;;;;;5054755;28;20048;-67
2022/12/25 07:39:34;;;;;;;71.97;24.15;;;8.50;99.90;;;;;;5054007;28;20044;-67
2022/12/25 07:41:59;;;;;;;74.57;25.00;;;8.50;99.90;;;;;;5036943;28;20056;-68
2022/12/25 07:44:25;;;;;;;76.60;25.58;;;8.60;99.90;;;;;;5039037;28;20067;-68
2022/12/25 07:46:50;;;;;;;69.82;24.85;;;8.60;99.90;;;;;;5050966;28;20036;-68
2022/12/25 07:49:16;;;;;;;80.05;26.35;;;8.60;99.90;;;;;;5038044;28;20036;-67
2022/12/25 07:51:42;;;;;;;68.95;22.25;;;8.60;99.90;;;;;;5053217;28;20039;-68
2022/12/25 07:54:07;;;;;;;74.85;25.20;;;8.60;99.90;;;;;;5056728;28;20103;-68
2022/12/25 07:56:33;;;;;;;73.35;24.80;;;8.60;99.90;;;;;;5053303;28;20040;-68
2022/12/25 07:58:59;;;;;;;75.97;25.42;;;8.60;99.90;;;;;;5036316;28;20044;-68
2022/12/25 08:01:26;;;;;;;66.93;24.60;;;8.60;99.90;;;;;;5073997;28;20055;-68
2022/12/25 08:04:01;;;;;;;68.68;24.52;;;8.60;99.90;;;;;;5054330;28;20131;-68
2022/12/25 08:06:32;;;;;;;65.53;23.88;;;8.60;99.90;;;;;;5069162;28;20035;-68
2022/12/25 08:09:04;;;;;;;65.47;23.65;;;8.60;99.90;;;;;;5051649;28;20037;-68
2022/12/25 08:11:30;;;;;;;64.20;23.48;;;8.70;99.90;;;;;;5055124;28;20043;-68
2022/12/25 08:13:55;;;;;;;61.72;23.00;;;8.70;99.90;;;;;;5053764;28;20040;-68
2022/12/25 08:16:21;;;;;;;57.47;22.25;;;8.70;99.90;;;;;;5052745;28;20045;-68
2022/12/25 08:18:47;;;;;;;57.53;22.23;;;8.70;99.90;;;;;;5042481;28;20032;-68
2022/12/25 08:21:14;;;;;;;60.15;21.58;;;8.70;99.90;;;;;;5055568;28;20040;-68
2022/12/25 08:23:45;;;;;;;46.67;19.58;;;8.70;99.90;;;;;;5073556;28;20040;-68
2022/12/25 08:26:14;;;;;;;56.00;21.20;;;8.80;99.90;;;;;;5064790;28;20122;-67
2022/12/25 08:28:40;;;;;;;52.05;19.27;;;8.80;99.90;;;;;;5083303;28;20032;-68
2022/12/25 08:31:12;;;;;;;46.92;19.27;;;8.80;99.90;;;;;;5064910;28;20485;-68
2022/12/25 08:33:38;;;;;;;46.53;19.70;;;8.80;99.90;;;;;;5066291;28;20032;-68
2022/12/25 08:36:05;;;;;;;45.42;19.05;;;8.80;99.90;;;;;;5065821;28;21862;-68
2022/12/25 08:38:30;;;;;;;40.45;17.25;;;8.80;99.90;;;;;;5066334;28;20520;-68
2022/12/25 08:40:56;;;;;;;50.85;18.95;;;8.80;99.90;;;;;;5066733;28;20048;-68
2022/12/25 08:43:22;;;;;;;40.17;17.45;;;8.80;99.90;;;;;;5065466;28;20064;-68
2022/12/25 08:45:47;;;;;;;44.50;17.35;;;8.80;99.90;;;;;;5048806;28;20037;-70
2022/12/25 08:48:13;;;;;;;38.70;15.85;;;8.80;99.90;;;;;;5062956;28;20496;-68
2022/12/25 08:50:43;;;;;;;41.70;17.23;;;8.90;99.90;;;;;;5064263;28;20094;-68
2022/12/25 08:53:08;;;;;;;38.75;16.58;;;8.80;99.90;;;;;;5062887;28;20143;-68
2022/12/25 08:55:34;;;;;;;35.50;17.52;;;8.90;99.90;;;;;;5048920;28;20160;-68
2022/12/25 08:57:59;;;;;;;40.03;17.42;;;8.90;99.90;;;;;;5064649;28;20036;-68
2022/12/25 09:00:25;;;;;;;37.33;16.52;;;8.90;99.90;;;;;;5049241;28;20074;-68
2022/12/25 09:02:51;;;;;;;35.83;16.52;;;8.90;99.90;;;;;;5065298;28;20037;-68
2022/12/25 09:05:17;;;;;;;32.30;15.82;;;8.90;99.90;;;;;;5043539;28;20040;-68
2022/12/25 09:07:42;;;;;;;34.78;16.38;;;8.90;99.90;;;;;;5056418;28;20806;-68
2022/12/25 09:10:08;;;;;;;32.47;14.82;;;8.90;99.90;;;;;;5068564;28;20669;-68
2022/12/25 09:12:34;;;;;;;29.10;14.48;;;8.90;99.90;;;;;;5054969;28;20043;-67
2022/12/25 09:14:59;;;;;;;36.10;15.93;;;9.00;99.90;;;;;;5058880;28;20040;-67
2022/12/25 09:17:29;;;;;;;34.20;15.40;;;8.90;99.90;;;;;;5042985;28;20032;-68
2022/12/25 09:19:54;;;;;;;30.60;15.07;;;9.00;99.90;;;;;;5071746;28;21495;-67
2022/12/25 09:22:20;;;;;;;29.80;14.05;;;9.00;99.90;;;;;;5059776;28;21343;-68
2022/12/25 09:24:46;;;;;;;27.80;14.02;;;9.00;99.90;;;;;;5061984;28;20556;-68
2022/12/25 09:27:11;;;;;;;28.13;13.80;;;8.90;99.90;;;;;;5057244;28;20040;-68
2022/12/25 09:29:37;;;;;;;26.20;14.52;;;9.00;99.90;;;;;;5052310;28;20484;-68
2022/12/25 09:32:04;;;;;;;25.05;12.20;;;8.90;99.90;;;;;;5043118;28;20040;-68
2022/12/25 09:34:30;;;;;;;27.23;13.25;;;9.00;99.90;;;;;;5055351;28;20036;-68
2022/12/25 09:36:55;;;;;;;25.65;12.15;;;9.00;99.90;;;;;;5041072;28;20098;-68
2022/12/25 09:39:22;;;;;;;27.50;13.80;;;9.00;99.90;;;;;;5055259;28;20609;-68
2022/12/25 09:41:52;;;;;;;28.50;14.40;;;9.00;99.90;;;;;;5039009;28;20063;-68
2022/12/25 09:44:24;;;;;;;26.75;12.32;;;9.00;99.90;;;;;;5071518;28;20064;-68
2022/12/25 09:46:57;;;;;;;26.63;13.65;;;9.00;99.90;;;;;;5055805;28;20569;-67
2022/12/25 09:49:26;;;;;;;24.20;12.90;;;9.00;99.90;;;;;;5055418;28;20135;-68
2022/12/25 09:52:01;;;;;;;26.77;13.80;;;9.00;99.90;;;;;;5061264;28;20044;-68
2022/12/25 09:54:53;;;;;;;22.48;11.02;;;9.00;99.90;;;;;;5046303;28;20040;-67
2022/12/25 09:57:18;;;;;;;26.98;12.85;;;9.00;99.90;;;;;;5043965;28;20165;-68
2022/12/25 09:59:46;;;;;;;28.90;13.10;;;9.00;99.90;;;;;;5053443;28;20496;-68
2022/12/25 10:02:37;;;;;;;24.30;12.52;;;9.00;99.90;;;;;;5056589;28;20400;-68
2022/12/25 10:05:30;;;;;;;26.52;12.75;;;9.00;99.90;;;;;;5059811;28;20044;-67
2022/12/25 10:08:02;;;;;;;23.23;13.30;;;9.00;99.90;;;;;;5053218;28;20040;-68
2022/12/25 10:11:12;;;;;;;25.20;12.57;;;9.00;99.90;;;;;;5060098;28;20071;-68
2022/12/25 10:14:10;;;;;;;25.58;11.45;;;9.00;99.90;;;;;;5005203;28;20076;-68
2022/12/25 10:16:44;;;;;;;22.55;11.73;;;9.00;99.90;;;;;;5068099;28;20571;-68
2022/12/25 10:19:27;;;;;;;30.88;12.15;;;9.00;99.90;;;;;;5055301;28;20550;-68
2022/12/25 10:21:57;;;;;;;24.83;11.73;;;9.00;99.90;;;;;;5038367;28;20703;-68
2022/12/25 10:24:51;;;;;;;26.63;11.70;;;9.00;99.90;;;;;;5057694;28;20067;-68
2022/12/25 10:27:30;;;;;;;26.10;12.02;;;9.10;99.90;;;;;;5058449;28;20052;-68
2022/12/25 10:29:57;;;;;;;24.20;12.20;;;9.00;99.90;;;;;;5062627;28;20077;-67
2022/12/25 10:32:23;;;;;;;25.17;12.48;;;9.10;99.90;;;;;;5058544;28;20625;-68
2022/12/25 10:34:49;;;;;;;17.92;10.30;;;9.10;99.90;;;;;;5044467;28;20032;-68
2022/12/25 10:37:15;;;;;;;23.58;11.38;;;9.10;99.90;;;;;;5064335;28;20041;-67
2022/12/25 10:39:42;;;;;;;21.88;12.15;;;9.10;99.90;;;;;;5046097;28;20032;-68
2022/12/25 10:42:25;;;;;;;26.95;12.52;;;9.10;99.90;;;;;;5048545;28;20047;-67
2022/12/25 10:45:06;;;;;;;22.02;12.13;;;9.20;99.90;;;;;;5063140;28;20587;-67
2022/12/25 10:47:39;;;;;;;22.42;11.73;;;9.10;99.90;;;;;;5045093;28;20064;-68
2022/12/25 10:50:21;;;;;;;21.65;11.35;;;9.10;99.90;;;;;;5065153;28;20041;-68
2022/12/25 10:52:54;;;;;;;23.15;11.95;;;9.20;99.90;;;;;;5064485;28;20381;-68
2022/12/25 10:55:20;;;;;;;22.63;12.25;;;9.20;99.90;;;;;;5060095;28;20041;-67
2022/12/25 10:57:46;;;;;;;21.50;11.68;;;9.20;99.90;;;;;;5062960;28;20409;-68
2022/12/25 11:00:27;;;;;;;24.13;12.10;;;9.20;99.90;;;;;;5060742;28;20618;-68
2022/12/25 11:02:53;;;;;;;21.98;11.73;;;9.20;99.90;;;;;;5073014;28;20121;-67
2022/12/25 11:05:28;;;;;;;20.77;11.43;;;9.20;99.90;;;;;;5047088;28;20127;-68
2022/12/25 11:07:54;;;;;;;20.67;10.95;;;9.30;99.90;;;;;;5061202;28;20040;-68
2022/12/25 11:10:36;;;;;;;20.80;11.55;;;9.30;99.90;;;;;;5042103;28;20582;-68
2022/12/25 11:13:06;;;;;;;20.25;11.13;;;9.30;99.90;;;;;;5041615;28;20090;-68
2022/12/25 11:15:43;;;;;;;21.05;10.25;;;9.30;99.90;;;;;;5071430;28;20079;-68
2022/12/25 11:18:22;;;;;;;19.73;10.32;;;9.30;99.90;;;;;;5056973;28;20101;-68
2022/12/25 11:20:49;;;;;;;21.10;9.63;;;9.40;99.90;;;;;;5038545;28;20036;-67
2022/12/25 11:23:19;;;;;;;18.98;10.40;;;9.30;99.90;;;;;;5053207;28;20045;-68
2022/12/25 11:26:04;;;;;;;20.25;10.50;;;9.30;99.90;;;;;;5035401;28;20047;-68
2022/12/25 11:28:32;;;;;;;19.27;8.43;;;9.30;99.90;;;;;;5055627;28;20040;-68
2022/12/25 11:31:11;;;;;;;18.65;9.10;;;9.40;99.90;;;;;;5036845;28;20040;-68
2022/12/25 11:33:44;;;;;;;21.50;10.68;;;9.40;99.90;;;;;;5056226;28;20032;-67
2022/12/25 11:36:24;;;;;;;21.30;9.63;;;9.30;99.90;;;;;;5055853;28;20040;-68
2022/12/25 11:38:50;;;;;;;22.10;9.85;;;9.30;99.90;;;;;;5055616;28;20431;-68
2022/12/25 11:41:19;;;;;;;17.83;9.48;;;9.30;99.90;;;;;;5040337;28;20048;-68
2022/12/25 11:44:00;;;;;;;17.33;8.68;;;9.30;99.90;;;;;;5058814;28;20090;-68
2022/12/25 11:46:37;;;;;;;19.90;10.27;;;9.30;99.90;;;;;;5054204;28;20045;-67
2022/12/25 11:49:14;;;;;;;18.80;9.25;;;9.30;99.90;;;;;;5059778;28;21202;-68
2022/12/25 11:51:43;;;;;;;17.67;9.35;;;9.30;99.90;;;;;;5036363;28;20052;-68
2022/12/25 11:54:22;;;;;;;21.30;9.27;;;9.30;99.90;;;;;;5056256;28;20131;-68
2022/12/25 11:56:49;;;;;;;19.20;9.82;;;9.30;99.90;;;;;;5056465;28;20047;-68
2022/12/25 11:59:37;;;;;;;20.92;9.00;;;9.30;99.90;;;;;;5059931;28;20054;-67
2022/12/25 12:02:31;;;;;;;16.50;10.05;;;9.30;99.90;;;;;;5076465;28;20056;-68
2022/12/25 12:05:22;;;;;;;19.58;8.43;;;9.30;99.90;;;;;;5056451;28;20071;-68
2022/12/25 12:08:00;;;;;;;14.70;8.25;;;9.20;99.90;;;;;;5039212;28;20040;-67
2022/12/25 12:10:40;;;;;;;18.13;8.98;;;9.20;99.90;;;;;;5061377;28;20035;-68
2022/12/25 12:13:15;;;;;;;19.77;8.95;;;9.20;99.90;;;;;;5047014;28;20366;-68
2022/12/25 12:15:44;;;;;;;16.17;7.80;;;9.20;99.90;;;;;;5071914;28;20400;-68
2022/12/25 12:18:27;;;;;;;17.25;9.02;;;9.20;99.90;;;;;;5038697;28;20063;-67
2022/12/25 12:21:07;;;;;;;19.02;8.93;;;9.30;99.90;;;;;;5058699;28;20040;-68
2022/12/25 12:23:48;;;;;;;15.77;8.45;;;9.20;99.90;;;;;;5061801;28;20072;-68
2022/12/25 12:26:23;;;;;;;19.05;9.50;;;9.30;99.90;;;;;;5059410;28;20047;-68
2022/12/25 12:28:51;;;;;;;19.52;8.60;;;9.30;99.90;;;;;;5055874;28;20037;-68
2022/12/25 12:31:17;;;;;;;17.67;8.98;;;9.30;99.90;;;;;;5055155;28;20958;-68
2022/12/25 12:33:57;;;;;;;18.63;9.70;;;9.30;99.90;;;;;;5058825;28;20037;-68
2022/12/25 12:36:25;;;;;;;20.20;8.80;;;9.30;99.90;;;;;;5069715;28;20123;-68
2022/12/25 12:38:52;;;;;;;17.27;8.45;;;9.30;99.90;;;;;;5037150;28;20056;-68
2022/12/25 12:41:18;;;;;;;19.63;9.02;;;9.30;99.90;;;;;;5060337;28;20149;-68
2022/12/25 12:43:58;;;;;;;17.13;9.02;;;9.30;99.90;;;;;;5056733;28;20079;-68
2022/12/25 12:46:35;;;;;;;15.90;8.70;;;9.30;99.90;;;;;;5040318;28;20045;-68
2022/12/25 12:49:28;;;;;;;19.38;8.60;;;9.30;99.90;;;;;;5071426;28;20044;-67
2022/12/25 12:52:23;;;;;;;16.45;8.27;;;9.40;99.90;;;;;;5040099;28;20049;-68
2022/12/25 12:54:58;;;;;;;17.45;8.95;;;9.40;99.90;;;;;;5057394;28;20082;-67
2022/12/25 12:57:28;;;;;;;17.35;9.52;;;9.40;99.90;;;;;;5038028;28;20075;-68
2022/12/25 12:59:56;;;;;;;21.85;9.32;;;9.30;99.90;;;;;;5055060;28;20684;-68
2022/12/25 13:02:41;;;;;;;18.42;9.10;;;9.40;99.90;;;;;;5055157;28;20044;-68
2022/12/25 13:05:37;;;;;;;19.65;8.88;;;9.40;99.90;;;;;;5049286;28;20445;-68
2022/12/25 13:08:41;;;;;;;14.65;8.68;;;9.50;99.90;;;;;;5052529;28;20493;-68
2022/12/25 13:11:15;;;;;;;17.60;8.20;;;9.50;99.90;;;;;;5056299;28;20037;-68
2022/12/25 13:13:44;;;;;;;18.13;8.45;;;9.50;99.90;;;;;;5033044;28;20076;-68
2022/12/25 13:16:19;;;;;;;17.17;7.80;;;9.60;99.90;;;;;;5048703;28;20052;-68
2022/12/25 13:18:45;;;;;;;16.58;8.50;;;9.60;99.90;;;;;;5032713;28;20041;-68
2022/12/25 13:21:18;;;;;;;18.27;8.93;;;9.60;99.90;;;;;;5036375;28;20036;-68
2022/12/25 13:23:44;;;;;;;14.80;8.00;;;9.60;99.90;;;;;;5026820;28;20068;-67
2022/12/25 13:26:16;;;;;;;19.98;9.25;;;9.60;99.90;;;;;;5048409;28;20187;-68
2022/12/25 13:28:45;;;;;;;17.17;8.30;;;9.60;99.90;;;;;;5067681;28;20040;-68
2022/12/25 13:31:17;;;;;;;18.15;8.45;;;9.70;99.90;;;;;;5034798;28;20029;-68
2022/12/25 13:34:32;;;;;;;16.80;8.07;;;9.70;99.90;;;;;;5067317;28;20240;-67
2022/12/25 13:37:11;;;;;;;17.92;8.35;;;9.60;99.90;;;;;;5046837;28;20050;-68
2022/12/25 13:39:47;;;;;;;15.35;7.95;;;9.60;99.90;;;;;;5051408;28;20060;-68
2022/12/25 13:42:16;;;;;;;17.13;8.25;;;9.60;99.90;;;;;;5065762;28;20059;-68
2022/12/25 13:44:52;;;;;;;14.07;7.80;;;9.60;99.90;;;;;;5054000;28;20040;-67
2022/12/25 13:47:55;;;;;;;17.30;8.77;;;9.60;99.90;;;;;;5040326;28;20043;-68
2022/12/25 13:50:23;;;;;;;15.98;8.43;;;9.60;99.90;;;;;;4961353;28;20046;-68
2022/12/25 13:52:49;;;;;;;15.57;8.20;;;9.60;99.90;;;;;;4943962;28;20121;-68
2022/12/25 13:55:18;;;;;;;18.80;8.90;;;9.60;99.90;;;;;;4943420;28;20406;-67
2022/12/25 13:57:59;;;;;;;13.90;7.63;;;9.60;99.90;;;;;;4959413;28;20088;-68
2022/12/25 14:00:34;;;;;;;14.68;7.85;;;9.60;99.90;;;;;;4959357;28;20058;-69
2022/12/25 14:02:59;;;;;;;;;;;9.60;99.90;;;;;;4943350;28;20050;-68
2022/12/25 14:05:32;;;;;;;17.55;8.80;;;9.60;99.90;;;;;;4939368;28;19937;-68
2022/12/25 14:08:00;;;;;;;16.88;8.40;;;9.60;99.90;;;;;;4943466;28;21040;-67
2022/12/25 14:10:31;;;;;;;14.90;8.98;;;9.60;99.90;;;;;;4959462;28;20074;-67
2022/12/25 14:13:00;;;;;;;15.25;7.72;;;9.60;99.90;;;;;;4940290;28;20062;-68
2022/12/25 14:15:28;;;;;;;17.23;9.25;;;9.50;99.90;;;;;;4957493;28;20042;-68
2022/12/25 14:17:54;;;;;;;19.95;9.60;;;9.60;99.90;;;;;;4958617;28;20046;-68
2022/12/25 14:20:38;;;;;;;20.92;9.82;;;9.50;99.90;;;;;;4959791;28;20169;-67
2022/12/25 14:23:06;;;;;;;17.23;9.27;;;9.50;99.90;;;;;;4979987;28;20057;-68
2022/12/25 14:25:43;;;;;;;16.13;9.57;;;9.50;99.90;;;;;;4987577;28;20051;-68
2022/12/25 14:28:18;;;;;;;17.65;10.05;;;9.60;99.90;;;;;;5037257;28;20400;-68
2022/12/25 14:30:44;;;;;;;17.15;9.55;;;9.50;99.90;;;;;;5069330;28;20047;-67
2022/12/25 14:33:17;;;;;;;16.52;10.52;;;9.50;99.90;;;;;;5041129;28;20409;-68
2022/12/25 14:35:44;;;;;;;16.73;9.57;;;9.60;99.90;;;;;;5060500;28;20044;-68
2022/12/25 14:38:25;;;;;;;18.02;10.25;;;9.50;99.90;;;;;;5061659;28;20135;-68
2022/12/25 14:41:00;;;;;;;19.55;10.93;;;9.50;99.90;;;;;;5047915;28;20082;-68